Upton, Kentucky
Current Conditions -  °F | °C
As of 9:55 PM on Saturday 25 Oct 2014 (Local Time) from KGLW Reporting Station
Haze Haze  
Wind Chill: 58°   Ceiling: 700
Heat Index: 58°   Visibility: 1.7mi
Dew Point: 58°   Wind: 0mph
Humidity: 100%   Direction: NA
Pressure: 30.01"   Gusts: NA
Location:  37.46°N, 85.9°W
Report Text: KGLW 260155Z AUTO 00000KT 1 3/4SM BR VV007 15/15 A3001 RMK AO2 T01450145
Loading
Personal Weather Stations






























Interactive Weather Map
Tropical Storm Tracking
New forecast layout! Learn more

10-Day Weather Forecast

Advertisements
Track Severe Weather on mobile